Lehigh Valley International Airport Allentown US
ICAO: KABE
IATA: ABE
Category: Medium
Scheduled Services: Yes

Elevation: 393 ft
TransAlt. 18000 ft.

Airport Communications:
APP/DEP:118.2
ATIS:126.975
CLNC DEL:124.05
GND:121.9
WILLIAMSPORT RDO:117.5
TWR:120.5
UNICOM:122.95

KABE Zoom In..

Runways:

(A) RW 06 length 7599 ft width 150 ft
ILS 110.70 / hdg 63

(B) RW 13 length 5797 ft width 150 ft
ILS 111.90 / hdg 135

(C) RW 24 length 7599 ft width 150 ft
ILS 108.55 / hdg 243

(D) RW 31 length 5797 ft width 150 ft
---- / hdg 315

Location; KABE
Day. 15 / Time. 22.51 Zulu
* Altimeter: 29.96
* Temperature: 28° c. 82.4°f.
* Wind from: 250° Speed 07 kn.
Dewpoint: 20° c.
Visibility: 10 Statute Miles.
Clouds: Clear (automated report).

KABE 152251Z 25007KT 10SM CLR 28/20 A2996 RMK AO2 SLP143 T02780200 $


Wind From 250°
Speed 07 kn.

 
 
jpsmedia.com for Web Design worldairports.se 2018   terms of use